To NAV CANADA Home Page Login to a new session Search on AWWS site Feedback and Comments Disclaimer Vers la page française équivalente Tips FAQ What's new on the site To the Forecasts and Observations / NOTAM section To "File a Flight Plan" website Publications and other links Update of the User's profile FIC Telephone Numbers My Weather Data Folder Route Weather Data Regional Weather Data Local Weather Data To the Forecasts and Observations / NOTAM section
Request Generated 07/30/2015 at 16:09:28 UTC . Weather information available at that time is displayed.

METAR/TAF

WHITEHORSE/ERIK NIELSEN INTL/YT    

METAR CYXY 301600Z 16008KT 40SM BKN055 10/05 A3008 RMK SC7 SLP203=
METAR CYXY 301500Z 17007KT 40SM BKN055 09/04 A3008 RMK SC6 SLP204=
METAR CYXY 301400Z 17008KT 40SM SCT055 SCT200 08/04 A3007 RMK SC3CI1
SLP201=

TAF CYXY 301138Z 3012/3112 16010KT P6SM SCT060
FM301900 14006KT P6SM SCT050 TEMPO 3019/3106 P6SM -SHRA BKN050
PROB30 3019/3106 VRB15G25KT P6SM -TSRA BKN050CB
FM310600 VRB03KT P6SM SCT050 TEMPO 3106/3112 BKN050
RMK NXT FCST BY 301800Z=
Your time UTC time
Weather data provided by Environment Canada and NAV CANADA